sensor_id;sensor_type;location;lat;lon;timestamp;P1;durP1;ratioP1;P2;durP2;ratioP2
39694;SDS011;25367;-35.352;149.036;2023-05-23T00:02:18;0.95;;;0.73;;
39694;SDS011;25367;-35.352;149.036;2023-05-23T00:04:50;1.25;;;0.73;;
39694;SDS011;25367;-35.352;149.036;2023-05-23T00:07:20;1.70;;;0.77;;
39694;SDS011;25367;-35.352;149.036;2023-05-23T00:09:49;1.13;;;0.57;;
39694;SDS011;25367;-35.352;149.036;2023-05-23T00:12:20;1.98;;;0.63;;
39694;SDS011;25367;-35.352;149.036;2023-05-23T00:14:49;3.65;;;0.70;;
39694;SDS011;25367;-35.352;149.036;2023-05-23T00:17:19;1.88;;;0.75;;
39694;SDS011;25367;-35.352;149.036;2023-05-23T00:19:52;0.55;;;0.47;;
39694;SDS011;25367;-35.352;149.036;2023-05-23T00:22:21;0.37;;;0.37;;
39694;SDS011;25367;-35.352;149.036;2023-05-23T00:24:51;1.30;;;0.60;;
39694;SDS011;25367;-35.352;149.036;2023-05-23T00:27:20;0.63;;;0.50;;
39694;SDS011;25367;-35.352;149.036;2023-05-23T00:29:50;0.77;;;0.40;;
39694;SDS011;25367;-35.352;149.036;2023-05-23T00:32:19;0.60;;;0.50;;
39694;SDS011;25367;-35.352;149.036;2023-05-23T00:34:52;1.08;;;0.63;;
39694;SDS011;25367;-35.352;149.036;2023-05-23T00:37:22;0.87;;;0.60;;
39694;SDS011;25367;-35.352;149.036;2023-05-23T00:39:51;0.68;;;0.50;;
39694;SDS011;25367;-35.352;149.036;2023-05-23T00:42:21;0.98;;;0.30;;
39694;SDS011;25367;-35.352;149.036;2023-05-23T00:44:50;3.17;;;0.60;;
39694;SDS011;25367;-35.352;149.036;2023-05-23T00:47:20;1.42;;;0.63;;
39694;SDS011;25367;-35.352;149.036;2023-05-23T00:49:53;0.40;;;0.40;;
39694;SDS011;25367;-35.352;149.036;2023-05-23T00:52:22;0.55;;;0.47;;
39694;SDS011;25367;-35.352;149.036;2023-05-23T00:54:52;0.20;;;0.20;;
39694;SDS011;25367;-35.352;149.036;2023-05-23T00:57:22;0.73;;;0.70;;
39694;SDS011;25367;-35.352;149.036;2023-05-23T00:59:53;0.43;;;0.38;;
39694;SDS011;25367;-35.352;149.036;2023-05-23T01:02:22;0.90;;;0.30;;
39694;SDS011;25367;-35.352;149.036;2023-05-23T01:04:57;2.13;;;0.25;;
39694;SDS011;25367;-35.352;149.036;2023-05-23T01:07:27;0.50;;;0.40;;
39694;SDS011;25367;-35.352;149.036;2023-05-23T01:09:57;0.30;;;0.28;;
39694;SDS011;25367;-35.352;149.036;2023-05-23T01:12:28;0.85;;;0.45;;
39694;SDS011;25367;-35.352;149.036;2023-05-23T01:15:05;1.13;;;0.15;;
39694;SDS011;25367;-35.352;149.036;2023-05-23T01:17:40;0.32;;;0.22;;
39694;SDS011;25367;-35.352;149.036;2023-05-23T01:20:21;0.40;;;0.30;;
39694;SDS011;25367;-35.352;149.036;2023-05-23T01:29:02;0.93;;;0.30;;
39694;SDS011;25367;-35.352;149.036;2023-05-23T01:31:36;0.10;;;0.10;;
39694;SDS011;25367;-35.352;149.036;2023-05-23T01:34:09;0.98;;;0.30;;
39694;SDS011;25367;-35.352;149.036;2023-05-23T01:36:42;0.95;;;0.40;;
39694;SDS011;25367;-35.352;149.036;2023-05-23T01:39:11;1.33;;;0.40;;
39694;SDS011;25367;-35.352;149.036;2023-05-23T01:41:41;0.40;;;0.40;;
39694;SDS011;25367;-35.352;149.036;2023-05-23T01:44:14;3.00;;;0.50;;
39694;SDS011;25367;-35.352;149.036;2023-05-23T01:46:43;6.32;;;0.50;;
39694;SDS011;25367;-35.352;149.036;2023-05-23T01:49:14;0.30;;;0.30;;
39694;SDS011;25367;-35.352;149.036;2023-05-23T01:51:45;0.30;;;0.30;;
39694;SDS011;25367;-35.352;149.036;2023-05-23T01:54:15;0.30;;;0.30;;
39694;SDS011;25367;-35.352;149.036;2023-05-23T01:56:45;0.43;;;0.40;;
39694;SDS011;25367;-35.352;149.036;2023-05-23T01:59:20;0.40;;;0.40;;
39694;SDS011;25367;-35.352;149.036;2023-05-23T02:01:49;0.73;;;0.40;;
39694;SDS011;25367;-35.352;149.036;2023-05-23T02:04:19;1.13;;;0.30;;
39694;SDS011;25367;-35.352;149.036;2023-05-23T02:06:49;0.85;;;0.35;;
39694;SDS011;25367;-35.352;149.036;2023-05-23T02:09:19;1.38;;;0.40;;
39694;SDS011;25367;-35.352;149.036;2023-05-23T02:11:48;0.40;;;0.38;;
39694;SDS011;25367;-35.352;149.036;2023-05-23T02:14:21;1.40;;;0.50;;
39694;SDS011;25367;-35.352;149.036;2023-05-23T02:16:50;0.93;;;0.45;;
39694;SDS011;25367;-35.352;149.036;2023-05-23T02:19:20;0.40;;;0.32;;
39694;SDS011;25367;-35.352;149.036;2023-05-23T02:21:50;2.95;;;0.40;;
39694;SDS011;25367;-35.352;149.036;2023-05-23T02:24:19;0.80;;;0.50;;
39694;SDS011;25367;-35.352;149.036;2023-05-23T02:26:49;0.28;;;0.28;;
39694;SDS011;25367;-35.352;149.036;2023-05-23T02:29:21;0.98;;;0.45;;
39694;SDS011;25367;-35.352;149.036;2023-05-23T02:31:51;8.83;;;0.80;;
39694;SDS011;25367;-35.352;149.036;2023-05-23T02:34:21;2.38;;;0.47;;
39694;SDS011;25367;-35.352;149.036;2023-05-23T02:36:50;5.43;;;1.02;;
39694;SDS011;25367;-35.352;149.036;2023-05-23T02:39:20;0.98;;;0.60;;
39694;SDS011;25367;-35.352;149.036;2023-05-23T02:41:50;1.42;;;0.70;;
39694;SDS011;25367;-35.352;149.036;2023-05-23T02:44:22;2.83;;;0.60;;
39694;SDS011;25367;-35.352;149.036;2023-05-23T02:46:52;1.85;;;0.80;;
39694;SDS011;25367;-35.352;149.036;2023-05-23T02:49:21;2.15;;;0.40;;
39694;SDS011;25367;-35.352;149.036;2023-05-23T02:51:51;6.07;;;0.80;;
39694;SDS011;25367;-35.352;149.036;2023-05-23T02:54:21;2.08;;;0.80;;
39694;SDS011;25367;-35.352;149.036;2023-05-23T02:56:50;2.78;;;0.40;;
39694;SDS011;25367;-35.352;149.036;2023-05-23T02:59:23;4.97;;;0.90;;
39694;SDS011;25367;-35.352;149.036;2023-05-23T03:01:52;2.73;;;1.20;;
39694;SDS011;25367;-35.352;149.036;2023-05-23T03:04:22;2.90;;;0.60;;
39694;SDS011;25367;-35.352;149.036;2023-05-23T03:06:52;1.65;;;0.88;;
39694;SDS011;25367;-35.352;149.036;2023-05-23T03:09:21;1.02;;;0.50;;
39694;SDS011;25367;-35.352;149.036;2023-05-23T03:11:50;1.98;;;0.80;;
39694;SDS011;25367;-35.352;149.036;2023-05-23T03:14:23;1.67;;;0.57;;
39694;SDS011;25367;-35.352;149.036;2023-05-23T03:16:53;3.75;;;0.60;;
39694;SDS011;25367;-35.352;149.036;2023-05-23T03:19:22;3.72;;;0.98;;
39694;SDS011;25367;-35.352;149.036;2023-05-23T03:21:52;2.92;;;1.00;;
39694;SDS011;25367;-35.352;149.036;2023-05-23T03:24:21;2.42;;;0.75;;
39694;SDS011;25367;-35.352;149.036;2023-05-23T03:26:51;4.20;;;0.85;;
39694;SDS011;25367;-35.352;149.036;2023-05-23T03:29:24;1.27;;;0.70;;
39694;SDS011;25367;-35.352;149.036;2023-05-23T03:31:53;3.35;;;1.10;;
39694;SDS011;25367;-35.352;149.036;2023-05-23T03:34:23;1.20;;;0.57;;
39694;SDS011;25367;-35.352;149.036;2023-05-23T03:36:52;1.13;;;0.75;;
39694;SDS011;25367;-35.352;149.036;2023-05-23T03:39:22;0.95;;;0.80;;
39694;SDS011;25367;-35.352;149.036;2023-05-23T03:41:51;1.75;;;0.85;;
39694;SDS011;25367;-35.352;149.036;2023-05-23T03:44:24;1.55;;;0.70;;
39694;SDS011;25367;-35.352;149.036;2023-05-23T03:46:53;1.20;;;0.70;;
39694;SDS011;25367;-35.352;149.036;2023-05-23T03:49:23;1.63;;;0.85;;
39694;SDS011;25367;-35.352;149.036;2023-05-23T03:51:52;3.08;;;0.90;;
39694;SDS011;25367;-35.352;149.036;2023-05-23T03:54:21;6.00;;;1.33;;
39694;SDS011;25367;-35.352;149.036;2023-05-23T03:56:52;5.65;;;0.80;;
39694;SDS011;25367;-35.352;149.036;2023-05-23T03:59:25;2.78;;;1.20;;
39694;SDS011;25367;-35.352;149.036;2023-05-23T04:01:55;1.92;;;1.17;;
39694;SDS011;25367;-35.352;149.036;2023-05-23T04:04:25;3.78;;;0.70;;
39694;SDS011;25367;-35.352;149.036;2023-05-23T04:06:55;2.08;;;0.70;;
39694;SDS011;25367;-35.352;149.036;2023-05-23T04:09:25;4.40;;;0.68;;
39694;SDS011;25367;-35.352;149.036;2023-05-23T04:11:56;1.73;;;0.80;;
39694;SDS011;25367;-35.352;149.036;2023-05-23T04:14:28;1.60;;;0.57;;
39694;SDS011;25367;-35.352;149.036;2023-05-23T04:16:59;1.88;;;0.70;;
39694;SDS011;25367;-35.352;149.036;2023-05-23T04:19:29;3.47;;;0.57;;
39694;SDS011;25367;-35.352;149.036;2023-05-23T04:21:58;3.85;;;0.70;;
39694;SDS011;25367;-35.352;149.036;2023-05-23T04:24:28;5.93;;;0.80;;
39694;SDS011;25367;-35.352;149.036;2023-05-23T04:26:58;1.08;;;0.60;;
39694;SDS011;25367;-35.352;149.036;2023-05-23T04:29:30;5.13;;;1.10;;
39694;SDS011;25367;-35.352;149.036;2023-05-23T04:32:00;1.67;;;0.77;;
39694;SDS011;25367;-35.352;149.036;2023-05-23T04:34:30;1.35;;;0.60;;
39694;SDS011;25367;-35.352;149.036;2023-05-23T04:37:00;2.90;;;0.73;;
39694;SDS011;25367;-35.352;149.036;2023-05-23T04:39:29;1.00;;;0.60;;
39694;SDS011;25367;-35.352;149.036;2023-05-23T04:42:16;6.50;;;0.93;;
39694;SDS011;25367;-35.352;149.036;2023-05-23T04:45:09;4.75;;;0.77;;
39694;SDS011;25367;-35.352;149.036;2023-05-23T04:47:52;0.95;;;0.50;;
39694;SDS011;25367;-35.352;149.036;2023-05-23T04:50:51;3.20;;;0.80;;
39694;SDS011;25367;-35.352;149.036;2023-05-23T04:53:21;1.48;;;0.60;;
39694;SDS011;25367;-35.352;149.036;2023-05-23T04:55:50;2.95;;;0.47;;
39694;SDS011;25367;-35.352;149.036;2023-05-23T04:58:20;6.50;;;0.82;;
39694;SDS011;25367;-35.352;149.036;2023-05-23T05:00:53;1.35;;;0.70;;
39694;SDS011;25367;-35.352;149.036;2023-05-23T05:03:22;1.40;;;0.87;;
39694;SDS011;25367;-35.352;149.036;2023-05-23T05:05:52;1.27;;;0.55;;
39694;SDS011;25367;-35.352;149.036;2023-05-23T05:08:22;2.10;;;0.85;;
39694;SDS011;25367;-35.352;149.036;2023-05-23T05:10:51;3.95;;;0.80;;
39694;SDS011;25367;-35.352;149.036;2023-05-23T05:13:21;3.42;;;0.68;;
39694;SDS011;25367;-35.352;149.036;2023-05-23T05:15:56;2.05;;;0.70;;
39694;SDS011;25367;-35.352;149.036;2023-05-23T05:18:26;3.10;;;0.50;;
39694;SDS011;25367;-35.352;149.036;2023-05-23T05:20:57;1.30;;;1.00;;
39694;SDS011;25367;-35.352;149.036;2023-05-23T05:23:26;2.28;;;0.77;;
39694;SDS011;25367;-35.352;149.036;2023-05-23T05:25:59;6.60;;;1.00;;
39694;SDS011;25367;-35.352;149.036;2023-05-23T05:28:29;3.53;;;0.93;;
39694;SDS011;25367;-35.352;149.036;2023-05-23T05:31:01;1.92;;;0.77;;
39694;SDS011;25367;-35.352;149.036;2023-05-23T05:33:34;1.42;;;0.68;;
39694;SDS011;25367;-35.352;149.036;2023-05-23T05:36:08;2.88;;;0.60;;
39694;SDS011;25367;-35.352;149.036;2023-05-23T05:38:38;5.28;;;0.82;;
39694;SDS011;25367;-35.352;149.036;2023-05-23T05:41:08;6.15;;;0.90;;
39694;SDS011;25367;-35.352;149.036;2023-05-23T05:43:42;2.58;;;0.70;;
39694;SDS011;25367;-35.352;149.036;2023-05-23T05:46:15;2.72;;;0.70;;
39694;SDS011;25367;-35.352;149.036;2023-05-23T05:48:45;1.38;;;0.80;;
39694;SDS011;25367;-35.352;149.036;2023-05-23T05:51:17;1.08;;;0.52;;
39694;SDS011;25367;-35.352;149.036;2023-05-23T05:53:46;3.65;;;0.90;;
39694;SDS011;25367;-35.352;149.036;2023-05-23T05:56:17;9.40;;;0.70;;
39694;SDS011;25367;-35.352;149.036;2023-05-23T05:58:46;1.88;;;0.70;;
39694;SDS011;25367;-35.352;149.036;2023-05-23T06:01:20;4.45;;;0.65;;
39694;SDS011;25367;-35.352;149.036;2023-05-23T06:03:49;4.55;;;1.00;;
39694;SDS011;25367;-35.352;149.036;2023-05-23T06:06:19;2.35;;;0.88;;
39694;SDS011;25367;-35.352;149.036;2023-05-23T06:08:49;1.38;;;0.77;;
39694;SDS011;25367;-35.352;149.036;2023-05-23T06:11:19;1.10;;;0.60;;
39694;SDS011;25367;-35.352;149.036;2023-05-23T06:13:48;8.18;;;0.85;;
39694;SDS011;25367;-35.352;149.036;2023-05-23T06:16:22;1.58;;;0.70;;
39694;SDS011;25367;-35.352;149.036;2023-05-23T06:18:51;4.35;;;0.90;;
39694;SDS011;25367;-35.352;149.036;2023-05-23T06:21:23;4.07;;;1.05;;
39694;SDS011;25367;-35.352;149.036;2023-05-23T06:23:52;1.67;;;0.93;;
39694;SDS011;25367;-35.352;149.036;2023-05-23T06:26:22;1.33;;;0.70;;
39694;SDS011;25367;-35.352;149.036;2023-05-23T06:28:52;1.48;;;0.73;;
39694;SDS011;25367;-35.352;149.036;2023-05-23T06:31:25;3.75;;;0.70;;
39694;SDS011;25367;-35.352;149.036;2023-05-23T06:33:54;4.60;;;0.70;;
39694;SDS011;25367;-35.352;149.036;2023-05-23T06:36:24;1.75;;;0.80;;
39694;SDS011;25367;-35.352;149.036;2023-05-23T06:38:53;1.67;;;0.55;;
39694;SDS011;25367;-35.352;149.036;2023-05-23T06:41:23;1.85;;;0.95;;
39694;SDS011;25367;-35.352;149.036;2023-05-23T06:43:53;5.00;;;1.00;;
39694;SDS011;25367;-35.352;149.036;2023-05-23T06:46:27;6.05;;;1.00;;
39694;SDS011;25367;-35.352;149.036;2023-05-23T06:48:57;2.03;;;0.85;;
39694;SDS011;25367;-35.352;149.036;2023-05-23T06:51:27;2.65;;;1.05;;
39694;SDS011;25367;-35.352;149.036;2023-05-23T06:53:56;3.05;;;1.15;;
39694;SDS011;25367;-35.352;149.036;2023-05-23T06:56:26;5.57;;;0.80;;
39694;SDS011;25367;-35.352;149.036;2023-05-23T06:58:58;2.80;;;0.80;;
39694;SDS011;25367;-35.352;149.036;2023-05-23T07:01:31;4.22;;;0.65;;
39694;SDS011;25367;-35.352;149.036;2023-05-23T07:04:00;2.28;;;0.82;;
39694;SDS011;25367;-35.352;149.036;2023-05-23T07:06:30;6.95;;;0.93;;
39694;SDS011;25367;-35.352;149.036;2023-05-23T07:08:59;3.40;;;0.60;;
39694;SDS011;25367;-35.352;149.036;2023-05-23T07:11:30;1.42;;;0.65;;
39694;SDS011;25367;-35.352;149.036;2023-05-23T07:14:00;1.20;;;0.80;;
39694;SDS011;25367;-35.352;149.036;2023-05-23T07:16:43;1.52;;;0.55;;
39694;SDS011;25367;-35.352;149.036;2023-05-23T07:19:12;1.13;;;0.50;;
39694;SDS011;25367;-35.352;149.036;2023-05-23T07:21:48;1.88;;;0.30;;
39694;SDS011;25367;-35.352;149.036;2023-05-23T07:24:19;4.43;;;0.85;;
39694;SDS011;25367;-35.352;149.036;2023-05-23T07:26:49;0.65;;;0.50;;
39694;SDS011;25367;-35.352;149.036;2023-05-23T07:29:18;2.10;;;0.50;;
39694;SDS011;25367;-35.352;149.036;2023-05-23T07:31:53;3.45;;;0.60;;
39694;SDS011;25367;-35.352;149.036;2023-05-23T07:34:23;3.20;;;1.00;;
39694;SDS011;25367;-35.352;149.036;2023-05-23T07:36:58;5.03;;;1.08;;
39694;SDS011;25367;-35.352;149.036;2023-05-23T07:39:33;1.65;;;0.80;;
39694;SDS011;25367;-35.352;149.036;2023-05-23T07:42:04;3.55;;;0.95;;
39694;SDS011;25367;-35.352;149.036;2023-05-23T07:44:33;6.43;;;1.13;;
39694;SDS011;25367;-35.352;149.036;2023-05-23T07:47:07;2.30;;;0.65;;
39694;SDS011;25367;-35.352;149.036;2023-05-23T07:49:36;21.05;;;1.33;;
39694;SDS011;25367;-35.352;149.036;2023-05-23T07:52:06;4.35;;;1.10;;
39694;SDS011;25367;-35.352;149.036;2023-05-23T07:54:36;10.70;;;1.08;;
39694;SDS011;25367;-35.352;149.036;2023-05-23T07:57:06;4.32;;;0.90;;
39694;SDS011;25367;-35.352;149.036;2023-05-23T07:59:36;5.10;;;0.90;;
39694;SDS011;25367;-35.352;149.036;2023-05-23T08:02:09;9.10;;;1.58;;
39694;SDS011;25367;-35.352;149.036;2023-05-23T08:04:40;10.27;;;1.13;;
39694;SDS011;25367;-35.352;149.036;2023-05-23T08:07:10;4.90;;;1.48;;
39694;SDS011;25367;-35.352;149.036;2023-05-23T08:09:47;4.70;;;1.05;;
39694;SDS011;25367;-35.352;149.036;2023-05-23T08:12:19;2.80;;;1.02;;
39694;SDS011;25367;-35.352;149.036;2023-05-23T08:14:54;3.15;;;0.95;;
39694;SDS011;25367;-35.352;149.036;2023-05-23T08:17:31;3.58;;;0.77;;
39694;SDS011;25367;-35.352;149.036;2023-05-23T08:20:01;3.88;;;1.02;;
39694;SDS011;25367;-35.352;149.036;2023-05-23T08:22:31;9.15;;;1.30;;
39694;SDS011;25367;-35.352;149.036;2023-05-23T08:25:01;6.03;;;0.93;;
39694;SDS011;25367;-35.352;149.036;2023-05-23T08:27:32;8.50;;;1.50;;
39694;SDS011;25367;-35.352;149.036;2023-05-23T08:30:06;4.85;;;0.90;;
39694;SDS011;25367;-35.352;149.036;2023-05-23T08:35:29;5.20;;;0.80;;
39694;SDS011;25367;-35.352;149.036;2023-05-23T08:37:59;4.43;;;0.90;;
39694;SDS011;25367;-35.352;149.036;2023-05-23T08:40:29;4.88;;;1.00;;
39694;SDS011;25367;-35.352;149.036;2023-05-23T08:43:08;9.05;;;0.82;;
39694;SDS011;25367;-35.352;149.036;2023-05-23T08:45:37;3.30;;;0.93;;
39694;SDS011;25367;-35.352;149.036;2023-05-23T08:48:10;3.38;;;0.93;;
39694;SDS011;25367;-35.352;149.036;2023-05-23T08:50:46;5.05;;;1.05;;
39694;SDS011;25367;-35.352;149.036;2023-05-23T08:53:19;8.95;;;1.20;;
39694;SDS011;25367;-35.352;149.036;2023-05-23T08:55:57;5.45;;;0.93;;
39694;SDS011;25367;-35.352;149.036;2023-05-23T08:58:31;10.45;;;1.65;;
39694;SDS011;25367;-35.352;149.036;2023-05-23T09:01:04;4.82;;;1.00;;
39694;SDS011;25367;-35.352;149.036;2023-05-23T09:03:37;4.78;;;0.90;;
39694;SDS011;25367;-35.352;149.036;2023-05-23T09:06:20;5.05;;;1.42;;
39694;SDS011;25367;-35.352;149.036;2023-05-23T09:08:50;6.35;;;1.33;;
39694;SDS011;25367;-35.352;149.036;2023-05-23T09:11:22;7.38;;;1.08;;
39694;SDS011;25367;-35.352;149.036;2023-05-23T09:13:53;4.13;;;1.38;;
39694;SDS011;25367;-35.352;149.036;2023-05-23T09:16:26;5.65;;;1.10;;
39694;SDS011;25367;-35.352;149.036;2023-05-23T09:19:14;3.08;;;1.10;;
39694;SDS011;25367;-35.352;149.036;2023-05-23T09:21:52;5.50;;;1.25;;
39694;SDS011;25367;-35.352;149.036;2023-05-23T09:24:32;6.65;;;1.17;;
39694;SDS011;25367;-35.352;149.036;2023-05-23T09:27:04;7.30;;;1.25;;
39694;SDS011;25367;-35.352;149.036;2023-05-23T09:29:36;5.97;;;1.50;;
39694;SDS011;25367;-35.352;149.036;2023-05-23T09:32:12;2.55;;;0.93;;
39694;SDS011;25367;-35.352;149.036;2023-05-23T09:34:53;3.33;;;1.30;;
39694;SDS011;25367;-35.352;149.036;2023-05-23T09:37:24;5.93;;;1.30;;
39694;SDS011;25367;-35.352;149.036;2023-05-23T09:39:58;7.30;;;1.10;;
39694;SDS011;25367;-35.352;149.036;2023-05-23T09:42:32;5.85;;;1.17;;
39694;SDS011;25367;-35.352;149.036;2023-05-23T09:45:02;3.10;;;1.02;;
39694;SDS011;25367;-35.352;149.036;2023-05-23T09:47:32;6.20;;;1.00;;
39694;SDS011;25367;-35.352;149.036;2023-05-23T09:50:04;4.40;;;0.82;;
39694;SDS011;25367;-35.352;149.036;2023-05-23T09:52:35;3.47;;;0.93;;
39694;SDS011;25367;-35.352;149.036;2023-05-23T09:55:05;2.78;;;1.35;;
39694;SDS011;25367;-35.352;149.036;2023-05-23T09:57:35;3.83;;;1.00;;
39694;SDS011;25367;-35.352;149.036;2023-05-23T10:00:07;2.28;;;0.82;;
39694;SDS011;25367;-35.352;149.036;2023-05-23T10:05:27;3.78;;;1.10;;
39694;SDS011;25367;-35.352;149.036;2023-05-23T10:08:01;6.82;;;1.00;;
39694;SDS011;25367;-35.352;149.036;2023-05-23T10:10:35;2.25;;;1.20;;
39694;SDS011;25367;-35.352;149.036;2023-05-23T10:13:44;3.72;;;1.17;;
39694;SDS011;25367;-35.352;149.036;2023-05-23T10:16:17;4.20;;;1.40;;
39694;SDS011;25367;-35.352;149.036;2023-05-23T10:18:51;5.63;;;1.00;;
39694;SDS011;25367;-35.352;149.036;2023-05-23T10:21:29;2.42;;;0.95;;
39694;SDS011;25367;-35.352;149.036;2023-05-23T10:24:03;18.23;;;1.67;;
39694;SDS011;25367;-35.352;149.036;2023-05-23T10:26:54;5.88;;;1.38;;
39694;SDS011;25367;-35.352;149.036;2023-05-23T10:29:24;2.70;;;1.00;;
39694;SDS011;25367;-35.352;149.036;2023-05-23T10:31:55;5.07;;;1.40;;
39694;SDS011;25367;-35.352;149.036;2023-05-23T10:34:27;4.63;;;1.40;;
39694;SDS011;25367;-35.352;149.036;2023-05-23T10:37:04;3.92;;;1.48;;
39694;SDS011;25367;-35.352;149.036;2023-05-23T10:39:41;5.25;;;1.63;;
39694;SDS011;25367;-35.352;149.036;2023-05-23T10:42:22;6.07;;;1.33;;
39694;SDS011;25367;-35.352;149.036;2023-05-23T10:45:16;3.60;;;1.20;;
39694;SDS011;25367;-35.352;149.036;2023-05-23T10:47:46;4.93;;;1.40;;
39694;SDS011;25367;-35.352;149.036;2023-05-23T10:50:29;4.22;;;1.20;;
39694;SDS011;25367;-35.352;149.036;2023-05-23T10:53:02;6.20;;;1.30;;
39694;SDS011;25367;-35.352;149.036;2023-05-23T10:55:32;3.42;;;1.25;;
39694;SDS011;25367;-35.352;149.036;2023-05-23T10:58:09;3.72;;;1.30;;
39694;SDS011;25367;-35.352;149.036;2023-05-23T11:00:40;3.50;;;1.50;;
39694;SDS011;25367;-35.352;149.036;2023-05-23T11:03:32;3.90;;;1.37;;
39694;SDS011;25367;-35.352;149.036;2023-05-23T11:06:03;6.85;;;1.48;;
39694;SDS011;25367;-35.352;149.036;2023-05-23T11:08:40;1.90;;;0.90;;
39694;SDS011;25367;-35.352;149.036;2023-05-23T11:11:09;5.47;;;1.50;;
39694;SDS011;25367;-35.352;149.036;2023-05-23T11:16:26;4.20;;;1.10;;
39694;SDS011;25367;-35.352;149.036;2023-05-23T11:21:56;4.43;;;1.50;;
39694;SDS011;25367;-35.352;149.036;2023-05-23T11:27:31;2.33;;;0.95;;
39694;SDS011;25367;-35.352;149.036;2023-05-23T11:30:02;2.05;;;0.93;;
39694;SDS011;25367;-35.352;149.036;2023-05-23T11:32:34;2.63;;;1.30;;
39694;SDS011;25367;-35.352;149.036;2023-05-23T11:35:04;3.72;;;1.50;;
39694;SDS011;25367;-35.352;149.036;2023-05-23T11:37:36;2.20;;;0.95;;
39694;SDS011;25367;-35.352;149.036;2023-05-23T11:40:25;2.75;;;1.13;;
39694;SDS011;25367;-35.352;149.036;2023-05-23T11:43:00;3.53;;;1.23;;
39694;SDS011;25367;-35.352;149.036;2023-05-23T11:45:30;5.00;;;1.60;;
39694;SDS011;25367;-35.352;149.036;2023-05-23T11:48:07;3.08;;;1.10;;
39694;SDS011;25367;-35.352;149.036;2023-05-23T11:50:43;4.53;;;1.40;;
39694;SDS011;25367;-35.352;149.036;2023-05-23T11:53:14;2.38;;;1.00;;
39694;SDS011;25367;-35.352;149.036;2023-05-23T11:55:48;4.82;;;1.20;;
39694;SDS011;25367;-35.352;149.036;2023-05-23T11:58:24;4.03;;;1.60;;
39694;SDS011;25367;-35.352;149.036;2023-05-23T12:01:00;2.40;;;1.20;;
39694;SDS011;25367;-35.352;149.036;2023-05-23T12:03:30;2.40;;;1.30;;
39694;SDS011;25367;-35.352;149.036;2023-05-23T12:06:00;6.95;;;1.50;;
39694;SDS011;25367;-35.352;149.036;2023-05-23T12:08:30;4.05;;;1.45;;
39694;SDS011;25367;-35.352;149.036;2023-05-23T12:10:59;2.75;;;1.25;;
39694;SDS011;25367;-35.352;149.036;2023-05-23T12:13:32;6.55;;;1.77;;
39694;SDS011;25367;-35.352;149.036;2023-05-23T12:16:01;3.13;;;1.40;;
39694;SDS011;25367;-35.352;149.036;2023-05-23T12:18:31;5.30;;;1.30;;
39694;SDS011;25367;-35.352;149.036;2023-05-23T12:21:01;2.85;;;1.30;;
39694;SDS011;25367;-35.352;149.036;2023-05-23T12:23:32;3.78;;;1.52;;
39694;SDS011;25367;-35.352;149.036;2023-05-23T12:26:03;3.25;;;1.42;;
39694;SDS011;25367;-35.352;149.036;2023-05-23T12:28:39;6.40;;;1.40;;
39694;SDS011;25367;-35.352;149.036;2023-05-23T12:31:10;6.70;;;1.35;;
39694;SDS011;25367;-35.352;149.036;2023-05-23T12:33:41;3.92;;;1.30;;
39694;SDS011;25367;-35.352;149.036;2023-05-23T12:36:11;5.43;;;1.50;;
39694;SDS011;25367;-35.352;149.036;2023-05-23T12:38:41;4.72;;;1.35;;
39694;SDS011;25367;-35.352;149.036;2023-05-23T12:41:11;3.20;;;1.48;;
39694;SDS011;25367;-35.352;149.036;2023-05-23T12:43:51;4.60;;;1.70;;
39694;SDS011;25367;-35.352;149.036;2023-05-23T12:46:21;5.38;;;1.30;;
39694;SDS011;25367;-35.352;149.036;2023-05-23T12:48:52;6.45;;;1.70;;
39694;SDS011;25367;-35.352;149.036;2023-05-23T12:51:22;4.63;;;1.33;;
39694;SDS011;25367;-35.352;149.036;2023-05-23T12:53:51;3.80;;;1.27;;
39694;SDS011;25367;-35.352;149.036;2023-05-23T12:56:22;5.78;;;2.25;;
39694;SDS011;25367;-35.352;149.036;2023-05-23T12:58:54;3.58;;;1.42;;
39694;SDS011;25367;-35.352;149.036;2023-05-23T13:01:23;3.20;;;1.50;;
39694;SDS011;25367;-35.352;149.036;2023-05-23T13:03:53;3.25;;;1.30;;
39694;SDS011;25367;-35.352;149.036;2023-05-23T13:06:23;5.40;;;2.30;;
39694;SDS011;25367;-35.352;149.036;2023-05-23T13:08:52;4.13;;;1.42;;
39694;SDS011;25367;-35.352;149.036;2023-05-23T13:11:22;2.60;;;1.02;;
39694;SDS011;25367;-35.352;149.036;2023-05-23T13:13:54;5.10;;;1.73;;
39694;SDS011;25367;-35.352;149.036;2023-05-23T13:16:24;3.55;;;1.58;;
39694;SDS011;25367;-35.352;149.036;2023-05-23T13:18:53;3.38;;;1.67;;
39694;SDS011;25367;-35.352;149.036;2023-05-23T13:21:23;4.28;;;1.38;;
39694;SDS011;25367;-35.352;149.036;2023-05-23T13:23:52;4.07;;;1.50;;
39694;SDS011;25367;-35.352;149.036;2023-05-23T13:26:21;5.60;;;1.60;;
39694;SDS011;25367;-35.352;149.036;2023-05-23T13:28:51;5.65;;;1.50;;
39694;SDS011;25367;-35.352;149.036;2023-05-23T13:31:24;2.35;;;1.13;;
39694;SDS011;25367;-35.352;149.036;2023-05-23T13:33:53;4.97;;;1.38;;
39694;SDS011;25367;-35.352;149.036;2023-05-23T13:36:22;4.57;;;1.80;;
39694;SDS011;25367;-35.352;149.036;2023-05-23T13:38:52;6.05;;;1.48;;
39694;SDS011;25367;-35.352;149.036;2023-05-23T13:41:21;4.25;;;2.00;;
39694;SDS011;25367;-35.352;149.036;2023-05-23T13:43:51;3.20;;;1.70;;
39694;SDS011;25367;-35.352;149.036;2023-05-23T13:46:23;2.65;;;1.30;;
